createdAt,value
2018-05-08T00:01:58.234Z,101649.45
2018-05-08T00:04:23.967Z,101656.34
2018-05-08T00:06:49.748Z,101650.45
2018-05-08T00:09:15.533Z,101652.39
2018-05-08T00:11:41.280Z,101650.37
2018-05-08T00:14:07.037Z,101645.98
2018-05-08T00:16:32.780Z,101642.11
2018-05-08T00:18:58.534Z,101642.11
2018-05-08T00:21:24.280Z,101638.57
2018-05-08T00:23:50.034Z,101636.52
2018-05-08T00:26:15.796Z,101639.73
2018-05-08T00:28:41.536Z,101638.55
2018-05-08T00:31:07.268Z,101640.66
2018-05-08T00:33:33.007Z,101634.45
2018-05-08T00:35:58.727Z,101644.27
2018-05-08T00:38:24.494Z,101643.79
2018-05-08T00:40:50.259Z,101636.30
2018-05-08T00:43:16.014Z,101629.21
2018-05-08T00:45:41.760Z,101632.88
2018-05-08T00:48:07.519Z,101633.80
2018-05-08T00:50:33.252Z,101637.02
2018-05-08T00:52:58.999Z,101631.18
2018-05-08T00:55:24.749Z,101633.63
2018-05-08T00:57:50.493Z,101630.59
2018-05-08T01:00:16.252Z,101626.94
2018-05-08T01:02:42.009Z,101626.38
2018-05-08T01:05:07.757Z,101625.61
2018-05-08T01:07:33.499Z,101622.26
2018-05-08T01:09:59.236Z,101617.58
2018-05-08T01:12:24.977Z,101620.23
2018-05-08T01:14:50.721Z,101617.42
2018-05-08T01:17:16.473Z,101620.53
2018-05-08T01:19:42.224Z,101614.22
2018-05-08T01:22:08.009Z,101613.21
2018-05-08T01:24:33.760Z,101613.70
2018-05-08T01:26:59.515Z,101616.87
2018-05-08T01:29:25.256Z,101616.09
2018-05-08T01:31:51.012Z,101614.25
2018-05-08T01:34:16.768Z,101617.98
2018-05-08T01:36:42.534Z,101619.94
2018-05-08T01:39:08.284Z,101623.70
2018-05-08T01:41:34.040Z,101613.63
2018-05-08T01:43:59.799Z,101615.40
2018-05-08T01:46:25.556Z,101620.49
2018-05-08T01:48:51.297Z,101619.27
2018-05-08T01:51:17.043Z,101615.06
2018-05-08T01:53:42.803Z,101623.10
2018-05-08T01:56:08.533Z,101616.80
2018-05-08T01:58:34.324Z,101620.48
2018-05-08T02:01:00.088Z,101620.17
2018-05-08T02:03:25.848Z,101629.09
2018-05-08T02:05:51.572Z,101620.69
2018-05-08T02:08:17.322Z,101620.83
2018-05-08T02:10:43.053Z,101616.47
2018-05-08T02:13:08.799Z,101617.94
2018-05-08T02:15:34.532Z,101612.86
2018-05-08T02:18:00.273Z,101609.80
2018-05-08T02:20:26.012Z,101609.42
2018-05-08T02:22:51.757Z,101609.09
2018-05-08T02:25:17.501Z,101606.44
2018-05-08T02:27:43.237Z,101603.84
2018-05-08T02:30:08.979Z,101600.34
2018-05-08T02:32:34.717Z,101604.02
2018-05-08T02:35:00.464Z,101602.48
2018-05-08T02:37:26.214Z,101595.60
2018-05-08T02:39:51.967Z,101595.53
2018-05-08T02:42:17.709Z,101592.44
2018-05-08T02:44:43.447Z,101591.62
2018-05-08T02:47:09.181Z,101595.86
2018-05-08T02:49:34.925Z,101593.27
2018-05-08T02:52:00.671Z,101594.94
2018-05-08T02:54:26.419Z,101598.89
2018-05-08T02:56:52.177Z,101594.81
2018-05-08T02:59:17.929Z,101591.84
2018-05-08T03:01:43.680Z,101595.45
2018-05-08T03:04:09.425Z,101593.27
2018-05-08T03:06:35.170Z,101585.87
2018-05-08T03:09:00.919Z,101593.08
2018-05-08T03:11:26.688Z,101590.95
2018-05-08T03:13:52.434Z,101591.84
2018-05-08T03:16:18.184Z,101593.08
2018-05-08T03:18:43.936Z,101588.91
2018-05-08T03:21:09.681Z,101595.25
2018-05-08T03:23:35.424Z,101586.63
2018-05-08T03:26:01.160Z,101592.87
2018-05-08T03:28:26.892Z,101596.64
2018-05-08T03:30:52.629Z,101586.22
2018-05-08T03:33:18.350Z,101588.05
2018-05-08T03:35:44.099Z,101590.28
2018-05-08T03:38:09.831Z,101585.39
2018-05-08T03:40:35.559Z,101590.38
2018-05-08T03:43:01.292Z,101586.90
2018-05-08T03:45:27.281Z,101583.59
2018-05-08T03:47:53.023Z,101588.95
2018-05-08T03:50:18.749Z,101582.80
2018-05-08T03:52:44.494Z,101586.72
2018-05-08T03:55:10.236Z,101588.08
2018-05-08T03:57:35.987Z,101588.55
2018-05-08T04:00:01.716Z,101583.56
2018-05-08T04:02:39.893Z,101573.94
2018-05-08T04:05:18.160Z,101570.31
2018-05-08T04:07:56.233Z,101570.51
2018-05-08T04:10:21.964Z,101566.88
2018-05-08T04:12:47.709Z,101563.59
2018-05-08T04:15:13.443Z,101559.30
2018-05-08T04:17:39.173Z,101559.70
2018-05-08T04:20:04.893Z,101556.48
2018-05-08T04:22:30.636Z,101558.25
2018-05-08T04:24:56.372Z,101557.27
2018-05-08T04:27:22.111Z,101554.92
2018-05-08T04:29:47.828Z,101553.88
2018-05-08T04:32:13.575Z,101559.24
2018-05-08T04:34:39.296Z,101554.27
2018-05-08T04:37:05.033Z,101554.88
2018-05-08T04:39:30.765Z,101561.91
2018-05-08T04:41:56.491Z,101552.84
2018-05-08T04:44:22.220Z,101555.06
2018-05-08T04:46:47.951Z,101553.73
2018-05-08T04:49:13.795Z,101549.48
2018-05-08T04:51:39.438Z,101548.09
2018-05-08T04:54:05.168Z,101547.53
2018-05-08T04:56:30.908Z,101542.39
2018-05-08T04:58:56.637Z,101539.20
2018-05-08T05:01:22.363Z,101537.80
2018-05-08T05:03:48.123Z,101541.67
2018-05-08T05:06:13.864Z,101538.17
2018-05-08T05:08:39.605Z,101541.66
2018-05-08T05:11:05.355Z,101533.25
2018-05-08T05:13:31.087Z,101531.63
2018-05-08T05:15:56.819Z,101531.23
2018-05-08T05:18:22.565Z,101532.96
2018-05-08T05:20:48.300Z,101531.55
2018-05-08T05:23:14.044Z,101533.13
2018-05-08T05:25:39.778Z,101529.00
2018-05-08T05:28:05.516Z,101525.52
2018-05-08T05:30:31.268Z,101527.15
2018-05-08T05:32:57.007Z,101522.67
2018-05-08T05:35:22.744Z,101524.88
2018-05-08T05:37:48.473Z,101525.45
2018-05-08T05:40:14.218Z,101529.90
2018-05-08T05:42:39.967Z,101523.33
2018-05-08T05:45:05.732Z,101518.53
2018-05-08T05:47:31.467Z,101518.53
2018-05-08T05:49:57.220Z,101520.33
2018-05-08T05:52:22.945Z,101521.44
2018-05-08T05:54:48.684Z,101513.66
2018-05-08T05:57:14.412Z,101513.88
2018-05-08T05:59:40.170Z,101515.26
2018-05-08T06:02:05.896Z,101511.95
2018-05-08T06:04:31.631Z,101508.69
2018-05-08T06:06:57.348Z,101505.72
2018-05-08T06:09:23.090Z,101505.38
2018-05-08T06:11:48.817Z,101505.60
2018-05-08T06:14:14.568Z,101504.38
2018-05-08T06:16:40.291Z,101505.35
2018-05-08T06:19:06.030Z,101503.83
2018-05-08T06:21:31.772Z,101494.84
2018-05-08T06:23:57.492Z,101496.20
2018-05-08T06:26:23.247Z,101495.48
2018-05-08T06:28:48.980Z,101500.66
2018-05-08T06:31:14.728Z,101492.36
2018-05-08T06:33:40.445Z,101493.61
2018-05-08T06:36:06.189Z,101496.31
2018-05-08T06:38:31.911Z,101500.05
2018-05-08T06:40:58.731Z,101503.49
2018-05-08T06:43:24.495Z,101499.27
2018-05-08T06:45:50.256Z,101501.65
2018-05-08T06:48:15.983Z,101504.23
2018-05-08T06:50:41.717Z,101495.50
2018-05-08T06:53:07.457Z,101497.20
2018-05-08T06:55:33.197Z,101496.30
2018-05-08T06:57:58.933Z,101492.07
2018-05-08T07:00:24.677Z,101492.92
2018-05-08T07:02:50.420Z,101490.42
2018-05-08T07:05:16.166Z,101493.29
2018-05-08T07:07:41.911Z,101485.95
2018-05-08T07:10:07.649Z,101481.86
2018-05-08T07:12:33.383Z,101486.84
2018-05-08T07:14:59.122Z,101483.25
2018-05-08T07:17:24.853Z,101486.94
2018-05-08T07:19:50.615Z,101484.39
2018-05-08T07:22:16.388Z,101484.87
2018-05-08T07:24:42.125Z,101485.58
2018-05-08T07:27:07.861Z,101480.33
2018-05-08T07:29:33.612Z,101481.58
2018-05-08T07:31:59.349Z,101483.72
2018-05-08T07:34:25.093Z,101481.47
2018-05-08T07:36:50.823Z,101488.36
2018-05-08T07:39:16.573Z,101484.69
2018-05-08T07:41:42.305Z,101484.08
2018-05-08T07:44:08.061Z,101481.59
2018-05-08T07:46:33.797Z,101477.80
2018-05-08T07:48:59.552Z,101474.92
2018-05-08T07:51:25.280Z,101473.25
2018-05-08T07:53:51.773Z,101472.40
2018-05-08T07:56:17.535Z,101470.34
2018-05-08T07:58:43.293Z,101474.02
2018-05-08T08:01:09.035Z,101468.73
2018-05-08T08:03:34.785Z,101469.44
2018-05-08T08:06:01.195Z,101462.86
2018-05-08T08:08:27.222Z,101465.48
2018-05-08T08:10:52.976Z,101464.85
2018-05-08T08:13:18.717Z,101455.61
2018-05-08T08:15:44.484Z,101456.45
2018-05-08T08:18:10.526Z,101456.58
2018-05-08T08:20:36.284Z,101456.12
2018-05-08T08:23:02.047Z,101454.39
2018-05-08T08:25:27.782Z,101454.52
2018-05-08T08:27:53.533Z,101454.30
2018-05-08T08:30:19.280Z,101447.27
2018-05-08T08:32:52.080Z,101453.34
2018-05-08T08:35:17.819Z,101446.53
2018-05-08T08:37:43.581Z,101441.64
2018-05-08T08:40:09.325Z,101438.09
2018-05-08T08:42:35.084Z,101435.58
2018-05-08T08:45:00.824Z,101432.39
2018-05-08T08:47:26.577Z,101434.66
2018-05-08T08:49:52.713Z,101422.70
2018-05-08T08:52:18.531Z,101423.19
2018-05-08T08:54:44.249Z,101423.86
2018-05-08T08:57:10.886Z,101420.39
2018-05-08T08:59:36.615Z,101414.64
2018-05-08T09:02:02.397Z,101413.84
2018-05-08T09:04:28.124Z,101411.05
2018-05-08T09:06:53.856Z,101411.69
2018-05-08T09:09:19.597Z,101409.13
2018-05-08T09:11:45.693Z,101403.42
2018-05-08T09:14:11.859Z,101401.55
2018-05-08T09:16:39.400Z,101402.88
2018-05-08T09:19:05.133Z,101398.61
2018-05-08T09:21:30.882Z,101390.10
2018-05-08T09:23:56.771Z,101388.06
2018-05-08T09:26:22.538Z,101379.94
2018-05-08T09:28:48.278Z,101381.21
2018-05-08T09:31:14.043Z,101381.00
2018-05-08T09:33:39.789Z,101377.02
2018-05-08T09:36:05.739Z,101375.92
2018-05-08T09:38:31.496Z,101373.09
2018-05-08T09:40:57.317Z,101373.67
2018-05-08T09:43:22.977Z,101370.07
2018-05-08T09:45:48.721Z,101365.37
2018-05-08T09:48:14.469Z,101363.61
2018-05-08T09:50:40.217Z,101357.12
2018-05-08T09:53:05.968Z,101355.49
2018-05-08T09:55:31.697Z,101344.83
2018-05-08T09:57:57.441Z,101350.86
2018-05-08T10:00:23.175Z,101342.23
2018-05-08T10:02:48.909Z,101340.30
2018-05-08T10:05:14.644Z,101336.30
2018-05-08T10:07:40.392Z,101337.81
2018-05-08T10:10:06.111Z,101337.00
2018-05-08T10:12:31.853Z,101339.40
2018-05-08T10:14:57.590Z,101334.23
2018-05-08T10:17:23.316Z,101330.34
2018-05-08T10:19:49.032Z,101325.31
2018-05-08T10:22:14.766Z,101329.30
2018-05-08T10:24:40.486Z,101318.91
2018-05-08T10:27:06.220Z,101310.32
2018-05-08T10:29:31.952Z,101317.16
2018-05-08T10:31:57.676Z,101302.98
2018-05-08T10:34:23.412Z,101312.91
2018-05-08T10:36:49.132Z,101303.73
2018-05-08T10:39:14.852Z,101292.28
2018-05-08T10:41:40.580Z,101295.75
2018-05-08T10:44:06.309Z,101297.64
2018-05-08T10:46:32.028Z,101298.05
2018-05-08T10:48:57.754Z,101293.20
2018-05-08T10:51:23.463Z,101292.22
2018-05-08T10:53:49.193Z,101292.08
2018-05-08T10:56:14.897Z,101295.05
2018-05-08T10:58:40.634Z,101299.36
2018-05-08T11:01:06.356Z,101292.20
2018-05-08T11:03:32.080Z,101286.25
2018-05-08T11:05:57.796Z,101286.73
2018-05-08T11:08:23.536Z,101271.16
2018-05-08T11:10:49.272Z,101272.94
2018-05-08T11:13:15.006Z,101275.73
2018-05-08T11:15:40.727Z,101272.73
2018-05-08T11:18:06.463Z,101269.06
2018-05-08T11:20:32.207Z,101261.74
2018-05-08T11:22:57.928Z,101263.49
2018-05-08T11:25:23.656Z,101254.17
2018-05-08T11:27:49.380Z,101261.15
2018-05-08T11:30:15.097Z,101233.82
2018-05-08T11:32:40.840Z,101249.92
2018-05-08T11:35:06.557Z,101238.63
2018-05-08T11:37:32.284Z,101233.48
2018-05-08T11:39:58.012Z,101234.32
2018-05-08T11:42:23.748Z,101229.26
2018-05-08T11:44:49.579Z,101229.42
2018-05-08T11:47:15.195Z,101219.89
2018-05-08T11:49:40.925Z,101217.13
2018-05-08T11:52:06.648Z,101219.08
2018-05-08T11:54:32.392Z,101217.43
2018-05-08T11:56:58.112Z,101214.30
2018-05-08T11:59:23.851Z,101208.36
2018-05-08T12:01:49.572Z,101203.52
2018-05-08T12:04:15.316Z,101203.33
2018-05-08T12:06:41.040Z,101193.37
2018-05-08T12:09:06.808Z,101185.73
2018-05-08T12:11:32.536Z,101184.62
2018-05-08T12:13:58.278Z,101188.17
2018-05-08T12:16:24.004Z,101190.70
2018-05-08T12:18:49.737Z,101183.22
2018-05-08T12:21:15.457Z,101181.02
2018-05-08T12:23:41.186Z,101182.20
2018-05-08T12:26:06.915Z,101176.48
2018-05-08T12:28:32.648Z,101179.23
2018-05-08T12:30:58.407Z,101165.67
2018-05-08T12:33:24.144Z,101166.07
2018-05-08T12:35:49.865Z,101161.14
2018-05-08T12:38:15.604Z,101155.30
2018-05-08T12:40:41.324Z,101157.28
2018-05-08T12:43:07.040Z,101151.06
2018-05-08T12:45:32.832Z,101150.49
2018-05-08T12:47:58.568Z,101145.93
2018-05-08T12:50:24.419Z,101143.01
2018-05-08T12:52:50.087Z,101136.65
2018-05-08T12:55:15.837Z,101130.57
2018-05-08T12:57:41.582Z,101126.44
2018-05-08T13:00:07.338Z,101121.39
2018-05-08T13:02:33.052Z,101124.72
2018-05-08T13:04:58.784Z,101119.25
2018-05-08T13:07:24.516Z,101116.70
2018-05-08T13:09:50.253Z,101121.59
2018-05-08T13:12:15.963Z,101118.25
2018-05-08T13:14:41.712Z,101110.09
2018-05-08T13:17:07.433Z,101107.80
2018-05-08T13:19:33.160Z,101109.38
2018-05-08T13:21:58.876Z,101102.03
2018-05-08T13:24:24.610Z,101106.97
2018-05-08T13:26:50.325Z,101098.63
2018-05-08T13:29:16.072Z,101104.67
2018-05-08T13:31:41.795Z,101099.36
2018-05-08T13:34:07.513Z,101087.58
2018-05-08T13:36:33.296Z,101087.17
2018-05-08T13:38:58.974Z,101087.20
2018-05-08T13:41:24.688Z,101089.25
2018-05-08T13:43:50.416Z,101082.72
2018-05-08T13:46:16.137Z,101083.78
2018-05-08T13:48:41.871Z,101074.64
2018-05-08T13:51:07.592Z,101073.50
2018-05-08T13:53:33.317Z,101072.50
2018-05-08T13:55:59.047Z,101072.30
2018-05-08T13:58:24.776Z,101066.93
2018-05-08T14:00:50.577Z,101061.45
2018-05-08T14:03:16.244Z,101054.89
2018-05-08T14:05:41.981Z,101055.65
2018-05-08T14:08:07.723Z,101060.80
2018-05-08T14:10:33.464Z,101048.38
2018-05-08T14:12:59.274Z,101046.85
2018-05-08T14:15:24.983Z,101051.71
2018-05-08T14:17:50.653Z,101044.81
2018-05-08T14:20:16.388Z,101039.12
2018-05-08T14:22:42.119Z,101042.00
2018-05-08T14:25:07.848Z,101034.22
2018-05-08T14:27:33.576Z,101041.31
2018-05-08T14:29:59.309Z,101036.86
2018-05-08T14:32:25.024Z,101036.78
2018-05-08T14:34:50.756Z,101036.34
2018-05-08T14:37:16.464Z,101021.05
2018-05-08T14:39:42.197Z,101026.63
2018-05-08T14:42:07.929Z,101025.03
2018-05-08T14:44:33.657Z,101023.90
2018-05-08T14:46:59.372Z,101030.45
2018-05-08T14:49:25.172Z,101016.33
2018-05-08T14:51:50.827Z,101018.25
2018-05-08T14:54:16.576Z,101011.92
2018-05-08T14:56:42.288Z,101014.32
2018-05-08T14:59:08.016Z,101012.02
2018-05-08T15:01:33.735Z,101012.44
2018-05-08T15:03:59.452Z,101013.48
2018-05-08T15:06:25.204Z,101011.14
2018-05-08T15:08:50.932Z,101005.76
2018-05-08T15:11:16.680Z,100994.77
2018-05-08T15:13:42.446Z,101005.42
2018-05-08T15:16:08.178Z,100996.72
2018-05-08T15:18:33.919Z,100993.64
2018-05-08T15:20:59.661Z,101000.52
2018-05-08T15:23:25.400Z,100984.49
2018-05-08T15:25:51.136Z,100992.61
2018-05-08T15:28:16.868Z,100987.80
2018-05-08T15:30:42.604Z,100984.02
2018-05-08T15:33:08.339Z,100980.33
2018-05-08T15:35:34.090Z,100979.23
2018-05-08T15:37:59.833Z,100969.62
2018-05-08T15:40:25.565Z,100964.11
2018-05-08T15:42:52.162Z,100966.02
2018-05-08T15:45:18.551Z,100962.02
2018-05-08T15:47:44.838Z,100960.06
2018-05-08T15:50:11.388Z,100959.14
2018-05-08T15:52:37.866Z,100959.20
2018-05-08T15:55:04.994Z,100950.67
2018-05-08T15:57:31.592Z,100949.59
2018-05-08T15:59:58.475Z,100955.87
2018-05-08T16:02:25.082Z,100948.84
2018-05-08T16:04:51.556Z,100947.31
2018-05-08T16:07:17.897Z,100943.55
2018-05-08T16:09:44.519Z,100944.11
2018-05-08T16:12:11.524Z,100937.25
2018-05-08T16:14:38.324Z,100936.51
2018-05-08T16:17:04.060Z,100936.36
2018-05-08T16:19:30.572Z,100935.88
2018-05-08T16:21:56.337Z,100931.96
2018-05-08T16:24:22.068Z,100919.78
2018-05-08T16:26:47.826Z,100926.70
2018-05-08T16:29:13.547Z,100928.31
2018-05-08T16:31:39.279Z,100920.70
2018-05-08T16:34:05.017Z,100927.59
2018-05-08T16:36:30.752Z,100923.16
2018-05-08T16:38:56.484Z,100926.78
2018-05-08T16:41:22.216Z,100928.78
2018-05-08T16:43:47.949Z,100925.96
2018-05-08T16:46:13.700Z,100925.37
2018-05-08T16:48:39.448Z,100921.19
2018-05-08T16:51:05.193Z,100923.16
2018-05-08T16:53:30.924Z,100928.14
2018-05-08T16:55:56.664Z,100918.27
2018-05-08T16:58:22.377Z,100923.59
2018-05-08T17:00:48.113Z,100919.10
2018-05-08T17:03:13.844Z,100927.12
2018-05-08T17:05:39.580Z,100919.34
2018-05-08T17:08:05.303Z,100916.50
2018-05-08T17:10:31.097Z,100916.38
2018-05-08T17:12:56.785Z,100916.69
2018-05-08T17:15:22.529Z,100914.89
2018-05-08T17:17:48.440Z,100913.14
2018-05-08T17:20:14.152Z,100912.77
2018-05-08T17:22:39.872Z,100914.36
2018-05-08T17:25:05.585Z,100911.45
2018-05-08T17:27:31.308Z,100900.56
2018-05-08T17:29:57.031Z,100902.34
2018-05-08T17:32:22.755Z,100890.56
2018-05-08T17:34:48.485Z,100890.77
2018-05-08T17:37:14.221Z,100900.69
2018-05-08T17:39:39.947Z,100892.75
2018-05-08T17:42:05.685Z,100898.91
2018-05-08T17:44:31.420Z,100897.63
2018-05-08T17:46:57.176Z,100894.80
2018-05-08T17:49:22.916Z,100892.00
2018-05-08T17:51:48.661Z,100895.05
2018-05-08T17:54:14.397Z,100893.42
2018-05-08T17:56:40.145Z,100892.03
2018-05-08T17:59:05.891Z,100893.93
2018-05-08T18:01:31.641Z,100889.91
2018-05-08T18:03:57.419Z,100891.48
2018-05-08T18:06:23.118Z,100889.88
2018-05-08T18:08:48.850Z,100894.13
2018-05-08T18:11:14.572Z,100895.33
2018-05-08T18:13:40.314Z,100896.42
2018-05-08T18:16:06.045Z,100901.62
2018-05-08T18:18:31.768Z,100900.08
2018-05-08T18:20:57.491Z,100897.70
2018-05-08T18:23:23.235Z,100894.27
2018-05-08T18:25:48.951Z,100898.63
2018-05-08T18:28:14.693Z,100895.25
2018-05-08T18:30:40.431Z,100888.61
2018-05-08T18:33:06.175Z,100890.56
2018-05-08T18:35:31.914Z,100890.81
2018-05-08T18:37:57.664Z,100895.43
2018-05-08T18:40:23.411Z,100895.66
2018-05-08T18:42:49.152Z,100903.12
2018-05-08T18:45:14.881Z,100903.00
2018-05-08T18:47:40.627Z,100905.03
2018-05-08T18:50:06.366Z,100907.69
2018-05-08T18:52:32.111Z,100908.95
2018-05-08T18:54:57.832Z,100912.36
2018-05-08T18:57:23.564Z,100914.17
2018-05-08T18:59:49.305Z,100911.29
2018-05-08T19:02:15.037Z,100915.22
2018-05-08T19:04:40.770Z,100914.27
2018-05-08T19:07:06.585Z,100916.21
2018-05-08T19:09:32.335Z,100922.23
2018-05-08T19:11:57.997Z,100929.16
2018-05-08T19:14:23.717Z,100921.97
2018-05-08T19:16:49.456Z,100926.70
2018-05-08T19:19:21.239Z,100926.60
2018-05-08T19:21:46.973Z,100927.42
2018-05-08T19:24:18.828Z,100927.52
2018-05-08T19:26:44.573Z,100927.03
2018-05-08T19:32:11.013Z,100926.88
2018-05-08T19:34:42.887Z,100929.37
2018-05-08T19:37:14.791Z,100926.92
2018-05-08T19:39:40.517Z,100927.98
2018-05-08T19:42:06.253Z,100929.86
2018-05-08T19:44:31.964Z,100926.33
2018-05-08T19:46:57.790Z,100926.88
2018-05-08T19:49:23.436Z,100932.95
2018-05-08T19:51:49.160Z,100932.59
2018-05-08T19:54:14.979Z,100934.75
2018-05-08T19:56:40.632Z,100934.91
2018-05-08T19:59:06.354Z,100934.55
2018-05-08T20:01:32.079Z,100936.81
2018-05-08T20:03:57.812Z,100935.48
2018-05-08T20:06:23.532Z,100937.86
2018-05-08T20:08:49.388Z,100942.31
2018-05-08T20:11:15.029Z,100938.49
2018-05-08T20:13:40.767Z,100941.91
2018-05-08T20:16:06.536Z,100941.91
2018-05-08T20:18:32.277Z,100948.43
2018-05-08T20:20:58.061Z,100940.72
2018-05-08T20:23:23.756Z,100951.11
2018-05-08T20:25:49.488Z,100941.32
2018-05-08T20:28:15.251Z,100948.59
2018-05-08T20:30:41.015Z,100939.80
2018-05-08T20:33:06.731Z,100940.83
2018-05-08T20:35:32.461Z,100945.29
2018-05-08T20:37:58.201Z,100942.50
2018-05-08T20:40:23.933Z,100945.72
2018-05-08T20:42:49.673Z,100944.56
2018-05-08T20:45:15.404Z,100947.56
2018-05-08T20:47:41.164Z,100941.94
2018-05-08T20:50:06.900Z,100942.55
2018-05-08T20:52:32.624Z,100940.57
2018-05-08T20:54:58.392Z,100947.20
2018-05-08T20:57:24.128Z,100953.62
2018-05-08T20:59:49.868Z,100947.62
2018-05-08T21:02:15.600Z,100944.19
2018-05-08T21:04:41.348Z,100940.53
2018-05-08T21:07:07.088Z,100939.14
2018-05-08T21:09:32.824Z,100938.00
2018-05-08T21:11:58.557Z,100937.31
2018-05-08T21:14:24.380Z,100936.55
2018-05-08T21:16:50.048Z,100944.73
2018-05-08T21:19:15.782Z,100939.91
2018-05-08T21:21:41.516Z,100942.91
2018-05-08T21:24:07.554Z,100939.19
2018-05-08T21:26:33.582Z,100944.34
2018-05-08T21:28:59.347Z,100940.01
2018-05-08T21:31:25.067Z,100944.77
2018-05-08T21:33:51.160Z,100943.39
2018-05-08T21:36:16.937Z,100940.61
2018-05-08T21:38:42.679Z,100943.16
2018-05-08T21:41:08.406Z,100939.39
2018-05-08T21:43:34.141Z,100943.47
2018-05-08T21:46:00.225Z,100936.53
2018-05-08T21:48:26.306Z,100939.11
2018-05-08T21:50:52.049Z,100937.19
2018-05-08T21:53:17.784Z,100939.24
2018-05-08T21:55:43.516Z,100933.27
2018-05-08T21:58:09.249Z,100937.75
2018-05-08T22:00:34.992Z,100935.05
2018-05-08T22:03:00.719Z,100937.64
2018-05-08T22:05:26.509Z,100931.58
2018-05-08T22:07:52.249Z,100933.04
2018-05-08T22:10:17.986Z,100934.20
2018-05-08T22:12:43.716Z,100936.08
2018-05-08T22:15:09.449Z,100934.34
2018-05-08T22:17:35.164Z,100931.38
2018-05-08T22:20:00.915Z,100933.90
2018-05-08T22:22:26.632Z,100933.70
2018-05-08T22:24:52.368Z,100940.38
2018-05-08T22:27:18.097Z,100937.48
2018-05-08T22:29:43.829Z,100948.72
2018-05-08T22:32:09.626Z,100941.63
2018-05-08T22:34:35.343Z,100939.02
2018-05-08T22:37:01.065Z,100941.47
2018-05-08T22:39:26.813Z,100938.51
2018-05-08T22:41:52.533Z,100937.53
2018-05-08T22:44:18.276Z,100937.76
2018-05-08T22:46:43.996Z,100941.72
2018-05-08T22:49:09.741Z,100938.25
2018-05-08T22:51:35.464Z,100940.62
2018-05-08T22:54:01.208Z,100939.24
2018-05-08T22:58:59.376Z,100932.09
2018-05-08T23:01:25.110Z,100935.88
2018-05-08T23:03:50.844Z,100937.65
2018-05-08T23:06:16.573Z,100939.07
2018-05-08T23:08:42.315Z,100932.95
2018-05-08T23:11:08.053Z,100930.18
2018-05-08T23:13:33.783Z,100931.46
2018-05-08T23:15:59.525Z,100924.80
2018-05-08T23:18:25.249Z,100925.13
2018-05-08T23:20:51.001Z,100926.83
2018-05-08T23:23:16.725Z,100931.22
2018-05-08T23:25:42.482Z,100926.75
2018-05-08T23:28:08.196Z,100927.31
2018-05-08T23:30:33.939Z,100928.06
2018-05-08T23:32:59.668Z,100927.42
2018-05-08T23:35:25.424Z,100921.63
2018-05-08T23:37:51.172Z,100926.59
2018-05-08T23:40:16.908Z,100924.98
2018-05-08T23:42:42.645Z,100917.72
2018-05-08T23:45:08.382Z,100919.72
2018-05-08T23:47:34.105Z,100918.32
2018-05-08T23:49:59.845Z,100918.94
2018-05-08T23:52:25.560Z,100910.66
2018-05-08T23:54:51.308Z,100914.20
2018-05-08T23:57:17.031Z,100913.19
2018-05-08T23:59:42.775Z,100901.25
